sensor_id;sensor_type;location;lat;lon;timestamp;temperature;humidity
81935;DHT22;71405;47.674;-2.050;2023-10-09T00:01:45;19.50;64.50
81935;DHT22;71405;47.674;-2.050;2023-10-09T00:04:12;19.50;64.40
81935;DHT22;71405;47.674;-2.050;2023-10-09T00:06:40;19.50;64.40
81935;DHT22;71405;47.674;-2.050;2023-10-09T00:09:07;19.50;64.20
81935;DHT22;71405;47.674;-2.050;2023-10-09T00:11:37;19.50;64.30
81935;DHT22;71405;47.674;-2.050;2023-10-09T00:14:07;19.50;64.40
81935;DHT22;71405;47.674;-2.050;2023-10-09T00:16:32;19.50;64.50
81935;DHT22;71405;47.674;-2.050;2023-10-09T00:19:03;19.50;64.10
81935;DHT22;71405;47.674;-2.050;2023-10-09T00:21:47;19.50;64.10
81935;DHT22;71405;47.674;-2.050;2023-10-09T00:24:14;19.50;64.00
81935;DHT22;71405;47.674;-2.050;2023-10-09T00:26:45;19.50;63.90
81935;DHT22;71405;47.674;-2.050;2023-10-09T00:29:15;19.40;63.90
81935;DHT22;71405;47.674;-2.050;2023-10-09T00:31:54;19.40;63.90
81935;DHT22;71405;47.674;-2.050;2023-10-09T00:34:31;19.40;63.80
81935;DHT22;71405;47.674;-2.050;2023-10-09T00:37:06;19.40;63.90
81935;DHT22;71405;47.674;-2.050;2023-10-09T00:39:36;19.40;63.70
81935;DHT22;71405;47.674;-2.050;2023-10-09T00:42:02;19.40;63.80
81935;DHT22;71405;47.674;-2.050;2023-10-09T00:44:29;19.40;63.70
81935;DHT22;71405;47.674;-2.050;2023-10-09T00:47:09;19.40;63.80
81935;DHT22;71405;47.674;-2.050;2023-10-09T00:49:59;19.40;63.70
81935;DHT22;71405;47.674;-2.050;2023-10-09T00:52:30;19.40;63.80
81935;DHT22;71405;47.674;-2.050;2023-10-09T00:55:10;19.40;63.70
81935;DHT22;71405;47.674;-2.050;2023-10-09T00:57:45;19.40;63.70
81935;DHT22;71405;47.674;-2.050;2023-10-09T01:00:26;19.40;63.60
81935;DHT22;71405;47.674;-2.050;2023-10-09T01:03:16;19.40;63.60
81935;DHT22;71405;47.674;-2.050;2023-10-09T01:05:57;19.40;63.70
81935;DHT22;71405;47.674;-2.050;2023-10-09T01:08:27;19.40;64.20
81935;DHT22;71405;47.674;-2.050;2023-10-09T01:10:56;19.40;64.00
81935;DHT22;71405;47.674;-2.050;2023-10-09T01:13:24;19.40;63.70
81935;DHT22;71405;47.674;-2.050;2023-10-09T01:16:05;19.40;63.80
81935;DHT22;71405;47.674;-2.050;2023-10-09T01:18:31;19.40;63.60
81935;DHT22;71405;47.674;-2.050;2023-10-09T01:21:01;19.40;63.50
81935;DHT22;71405;47.674;-2.050;2023-10-09T01:23:28;19.30;63.50
81935;DHT22;71405;47.674;-2.050;2023-10-09T01:25:55;19.30;63.50
81935;DHT22;71405;47.674;-2.050;2023-10-09T01:28:21;19.30;63.50
81935;DHT22;71405;47.674;-2.050;2023-10-09T01:30:46;19.30;63.50
81935;DHT22;71405;47.674;-2.050;2023-10-09T01:33:13;19.30;63.40
81935;DHT22;71405;47.674;-2.050;2023-10-09T01:35:52;19.30;63.40
81935;DHT22;71405;47.674;-2.050;2023-10-09T01:38:25;19.30;63.40
81935;DHT22;71405;47.674;-2.050;2023-10-09T01:41:17;19.30;63.80
81935;DHT22;71405;47.674;-2.050;2023-10-09T01:43:45;19.30;63.60
81935;DHT22;71405;47.674;-2.050;2023-10-09T01:46:14;19.30;63.40
81935;DHT22;71405;47.674;-2.050;2023-10-09T01:48:45;19.30;63.30
81935;DHT22;71405;47.674;-2.050;2023-10-09T01:51:15;19.30;63.40
81935;DHT22;71405;47.674;-2.050;2023-10-09T01:53:46;19.30;63.50
81935;DHT22;71405;47.674;-2.050;2023-10-09T01:56:22;19.30;63.40
81935;DHT22;71405;47.674;-2.050;2023-10-09T01:58:48;19.30;63.60
81935;DHT22;71405;47.674;-2.050;2023-10-09T02:01:16;19.30;63.80
81935;DHT22;71405;47.674;-2.050;2023-10-09T02:03:41;19.30;63.40
81935;DHT22;71405;47.674;-2.050;2023-10-09T02:06:09;19.30;63.50
81935;DHT22;71405;47.674;-2.050;2023-10-09T02:09:04;19.30;63.60
81935;DHT22;71405;47.674;-2.050;2023-10-09T02:11:32;19.30;63.40
81935;DHT22;71405;47.674;-2.050;2023-10-09T02:14:08;19.30;63.30
81935;DHT22;71405;47.674;-2.050;2023-10-09T02:16:47;19.30;63.20
81935;DHT22;71405;47.674;-2.050;2023-10-09T02:19:31;19.30;63.20
81935;DHT22;71405;47.674;-2.050;2023-10-09T02:22:02;19.30;63.10
81935;DHT22;71405;47.674;-2.050;2023-10-09T02:24:41;19.30;63.10
81935;DHT22;71405;47.674;-2.050;2023-10-09T02:27:19;19.20;63.20
81935;DHT22;71405;47.674;-2.050;2023-10-09T02:30:07;19.20;63.40
81935;DHT22;71405;47.674;-2.050;2023-10-09T02:32:53;19.20;63.00
81935;DHT22;71405;47.674;-2.050;2023-10-09T02:35:24;19.20;63.00
81935;DHT22;71405;47.674;-2.050;2023-10-09T02:38:04;19.20;62.90
81935;DHT22;71405;47.674;-2.050;2023-10-09T02:40:34;19.20;63.00
81935;DHT22;71405;47.674;-2.050;2023-10-09T02:43:07;19.20;62.80
81935;DHT22;71405;47.674;-2.050;2023-10-09T02:45:38;19.20;62.90
81935;DHT22;71405;47.674;-2.050;2023-10-09T02:48:16;19.20;63.10
81935;DHT22;71405;47.674;-2.050;2023-10-09T02:50:45;19.20;62.80
81935;DHT22;71405;47.674;-2.050;2023-10-09T02:53:10;19.20;62.80
81935;DHT22;71405;47.674;-2.050;2023-10-09T02:55:44;19.20;63.10
81935;DHT22;71405;47.674;-2.050;2023-10-09T02:58:29;19.20;63.20
81935;DHT22;71405;47.674;-2.050;2023-10-09T03:00:58;19.20;62.90
81935;DHT22;71405;47.674;-2.050;2023-10-09T03:03:24;19.20;63.10
81935;DHT22;71405;47.674;-2.050;2023-10-09T03:05:51;19.20;63.10
81935;DHT22;71405;47.674;-2.050;2023-10-09T03:08:17;19.20;62.80
81935;DHT22;71405;47.674;-2.050;2023-10-09T03:10:44;19.20;62.80
81935;DHT22;71405;47.674;-2.050;2023-10-09T03:13:10;19.20;62.70
81935;DHT22;71405;47.674;-2.050;2023-10-09T03:15:36;19.10;62.80
81935;DHT22;71405;47.674;-2.050;2023-10-09T03:18:03;19.10;62.70
81935;DHT22;71405;47.674;-2.050;2023-10-09T03:20:30;19.20;62.90
81935;DHT22;71405;47.674;-2.050;2023-10-09T03:22:56;19.20;63.00
81935;DHT22;71405;47.674;-2.050;2023-10-09T03:25:23;19.10;62.70
81935;DHT22;71405;47.674;-2.050;2023-10-09T03:27:50;19.10;62.70
81935;DHT22;71405;47.674;-2.050;2023-10-09T03:30:18;19.10;62.70
81935;DHT22;71405;47.674;-2.050;2023-10-09T03:32:54;19.10;62.70
81935;DHT22;71405;47.674;-2.050;2023-10-09T03:35:22;19.10;62.60
81935;DHT22;71405;47.674;-2.050;2023-10-09T03:37:57;19.10;63.00
81935;DHT22;71405;47.674;-2.050;2023-10-09T03:40:26;19.10;62.90
81935;DHT22;71405;47.674;-2.050;2023-10-09T03:42:52;19.10;62.60
81935;DHT22;71405;47.674;-2.050;2023-10-09T03:45:19;19.10;62.60
81935;DHT22;71405;47.674;-2.050;2023-10-09T03:47:57;19.10;62.60
81935;DHT22;71405;47.674;-2.050;2023-10-09T03:50:41;19.10;62.50
81935;DHT22;71405;47.674;-2.050;2023-10-09T03:53:09;19.10;62.70
81935;DHT22;71405;47.674;-2.050;2023-10-09T03:55:38;19.10;62.60
81935;DHT22;71405;47.674;-2.050;2023-10-09T03:58:07;19.10;62.60
81935;DHT22;71405;47.674;-2.050;2023-10-09T04:00:37;19.10;62.60
81935;DHT22;71405;47.674;-2.050;2023-10-09T04:03:14;19.10;62.60
81935;DHT22;71405;47.674;-2.050;2023-10-09T04:05:41;19.10;62.60
81935;DHT22;71405;47.674;-2.050;2023-10-09T04:08:09;19.10;62.40
81935;DHT22;71405;47.674;-2.050;2023-10-09T04:10:55;19.10;62.40
81935;DHT22;71405;47.674;-2.050;2023-10-09T04:13:27;19.10;62.40
81935;DHT22;71405;47.674;-2.050;2023-10-09T04:16:00;19.10;62.30
81935;DHT22;71405;47.674;-2.050;2023-10-09T04:18:34;19.10;62.30
81935;DHT22;71405;47.674;-2.050;2023-10-09T04:21:05;19.10;62.40
81935;DHT22;71405;47.674;-2.050;2023-10-09T04:23:56;19.10;62.20
81935;DHT22;71405;47.674;-2.050;2023-10-09T04:26:44;19.00;62.40
81935;DHT22;71405;47.674;-2.050;2023-10-09T04:29:14;19.10;62.20
81935;DHT22;71405;47.674;-2.050;2023-10-09T04:31:55;19.00;62.20
81935;DHT22;71405;47.674;-2.050;2023-10-09T04:34:25;19.00;62.20
81935;DHT22;71405;47.674;-2.050;2023-10-09T04:37:00;19.00;62.20
81935;DHT22;71405;47.674;-2.050;2023-10-09T04:39:28;19.00;62.10
81935;DHT22;71405;47.674;-2.050;2023-10-09T04:41:57;19.00;62.10
81935;DHT22;71405;47.674;-2.050;2023-10-09T04:44:42;19.00;62.20
81935;DHT22;71405;47.674;-2.050;2023-10-09T04:47:35;19.00;62.10
81935;DHT22;71405;47.674;-2.050;2023-10-09T04:50:09;19.00;62.20
81935;DHT22;71405;47.674;-2.050;2023-10-09T04:52:44;19.00;62.50
81935;DHT22;71405;47.674;-2.050;2023-10-09T04:55:10;19.00;62.10
81935;DHT22;71405;47.674;-2.050;2023-10-09T04:57:44;19.00;62.00
81935;DHT22;71405;47.674;-2.050;2023-10-09T05:00:18;19.00;62.10
81935;DHT22;71405;47.674;-2.050;2023-10-09T05:03:00;19.00;62.10
81935;DHT22;71405;47.674;-2.050;2023-10-09T05:05:36;19.00;62.10
81935;DHT22;71405;47.674;-2.050;2023-10-09T05:11:03;18.80;59.80
81935;DHT22;71405;47.674;-2.050;2023-10-09T05:13:35;18.90;60.60
81935;DHT22;71405;47.674;-2.050;2023-10-09T05:16:14;18.90;60.80
81935;DHT22;71405;47.674;-2.050;2023-10-09T05:18:58;18.90;61.20
81935;DHT22;71405;47.674;-2.050;2023-10-09T05:24:02;18.90;61.20
81935;DHT22;71405;47.674;-2.050;2023-10-09T05:26:50;18.90;61.00
81935;DHT22;71405;47.674;-2.050;2023-10-09T05:31:48;18.90;60.90
81935;DHT22;71405;47.674;-2.050;2023-10-09T05:34:49;18.90;61.00
81935;DHT22;71405;47.674;-2.050;2023-10-09T05:37:28;18.90;61.00
81935;DHT22;71405;47.674;-2.050;2023-10-09T05:40:03;18.90;61.00
81935;DHT22;71405;47.674;-2.050;2023-10-09T05:42:45;19.00;61.00
81935;DHT22;71405;47.674;-2.050;2023-10-09T05:45:11;19.00;61.10
81935;DHT22;71405;47.674;-2.050;2023-10-09T05:50:30;18.90;60.40
81935;DHT22;71405;47.674;-2.050;2023-10-09T05:53:00;18.80;58.90
81935;DHT22;71405;47.674;-2.050;2023-10-09T05:55:29;18.80;59.90
81935;DHT22;71405;47.674;-2.050;2023-10-09T05:58:33;18.80;60.20
81935;DHT22;71405;47.674;-2.050;2023-10-09T06:01:28;18.80;60.50
81935;DHT22;71405;47.674;-2.050;2023-10-09T06:04:12;18.80;60.90
81935;DHT22;71405;47.674;-2.050;2023-10-09T06:06:41;18.80;60.80
81935;DHT22;71405;47.674;-2.050;2023-10-09T06:09:15;18.80;60.70
81935;DHT22;71405;47.674;-2.050;2023-10-09T06:11:41;18.80;60.80
81935;DHT22;71405;47.674;-2.050;2023-10-09T06:14:15;18.80;60.80
81935;DHT22;71405;47.674;-2.050;2023-10-09T06:16:57;18.80;61.70
81935;DHT22;71405;47.674;-2.050;2023-10-09T06:19:27;18.80;60.90
81935;DHT22;71405;47.674;-2.050;2023-10-09T06:21:58;18.80;61.00
81935;DHT22;71405;47.674;-2.050;2023-10-09T06:24:43;18.80;61.80
81935;DHT22;71405;47.674;-2.050;2023-10-09T06:27:18;18.80;62.00
81935;DHT22;71405;47.674;-2.050;2023-10-09T06:29:56;18.80;63.10
81935;DHT22;71405;47.674;-2.050;2023-10-09T06:32:50;18.80;63.10
81935;DHT22;71405;47.674;-2.050;2023-10-09T06:35:45;18.80;63.40
81935;DHT22;71405;47.674;-2.050;2023-10-09T06:38:19;18.80;63.70
81935;DHT22;71405;47.674;-2.050;2023-10-09T06:40:50;18.80;63.60
81935;DHT22;71405;47.674;-2.050;2023-10-09T06:43:31;18.80;63.10
81935;DHT22;71405;47.674;-2.050;2023-10-09T06:46:00;18.80;63.60
81935;DHT22;71405;47.674;-2.050;2023-10-09T06:48:45;18.80;63.50
81935;DHT22;71405;47.674;-2.050;2023-10-09T06:51:21;18.80;63.10
81935;DHT22;71405;47.674;-2.050;2023-10-09T06:53:56;18.80;63.10
81935;DHT22;71405;47.674;-2.050;2023-10-09T06:56:32;18.80;63.80
81935;DHT22;71405;47.674;-2.050;2023-10-09T06:59:03;18.80;63.60
81935;DHT22;71405;47.674;-2.050;2023-10-09T07:01:41;18.80;63.80
81935;DHT22;71405;47.674;-2.050;2023-10-09T07:04:12;18.80;63.80
81935;DHT22;71405;47.674;-2.050;2023-10-09T07:06:48;18.80;63.80
81935;DHT22;71405;47.674;-2.050;2023-10-09T07:09:17;18.80;64.00
81935;DHT22;71405;47.674;-2.050;2023-10-09T07:11:48;18.80;63.90
81935;DHT22;71405;47.674;-2.050;2023-10-09T07:14:20;18.80;63.60
81935;DHT22;71405;47.674;-2.050;2023-10-09T07:17:15;18.80;63.40
81935;DHT22;71405;47.674;-2.050;2023-10-09T07:19:42;18.80;62.70
81935;DHT22;71405;47.674;-2.050;2023-10-09T07:22:11;18.80;63.00
81935;DHT22;71405;47.674;-2.050;2023-10-09T07:27:22;18.80;62.80
81935;DHT22;71405;47.674;-2.050;2023-10-09T07:30:08;18.80;62.90
81935;DHT22;71405;47.674;-2.050;2023-10-09T07:35:34;18.80;63.60
81935;DHT22;71405;47.674;-2.050;2023-10-09T07:40:38;18.80;62.90
81935;DHT22;71405;47.674;-2.050;2023-10-09T07:43:39;18.80;63.00
81935;DHT22;71405;47.674;-2.050;2023-10-09T07:49:04;18.80;63.10
81935;DHT22;71405;47.674;-2.050;2023-10-09T07:51:39;18.80;63.00
81935;DHT22;71405;47.674;-2.050;2023-10-09T07:54:09;18.80;63.40
81935;DHT22;71405;47.674;-2.050;2023-10-09T07:56:40;18.80;62.90
81935;DHT22;71405;47.674;-2.050;2023-10-09T07:59:10;18.80;63.00
81935;DHT22;71405;47.674;-2.050;2023-10-09T08:01:50;18.80;63.30
81935;DHT22;71405;47.674;-2.050;2023-10-09T08:04:28;18.80;63.10
81935;DHT22;71405;47.674;-2.050;2023-10-09T08:07:06;18.80;63.50
81935;DHT22;71405;47.674;-2.050;2023-10-09T08:09:33;18.80;63.50
81935;DHT22;71405;47.674;-2.050;2023-10-09T08:12:22;18.80;63.30
81935;DHT22;71405;47.674;-2.050;2023-10-09T08:15:07;18.80;63.70
81935;DHT22;71405;47.674;-2.050;2023-10-09T08:17:46;18.80;63.40
81935;DHT22;71405;47.674;-2.050;2023-10-09T08:20:27;18.80;63.70
81935;DHT22;71405;47.674;-2.050;2023-10-09T08:23:02;18.90;63.10
81935;DHT22;71405;47.674;-2.050;2023-10-09T08:25:30;18.90;63.40
81935;DHT22;71405;47.674;-2.050;2023-10-09T08:28:02;18.90;63.70
81935;DHT22;71405;47.674;-2.050;2023-10-09T08:30:40;18.90;63.50
81935;DHT22;71405;47.674;-2.050;2023-10-09T08:33:16;18.80;63.30
81935;DHT22;71405;47.674;-2.050;2023-10-09T08:35:54;18.90;63.10
81935;DHT22;71405;47.674;-2.050;2023-10-09T08:38:27;18.90;63.20
81935;DHT22;71405;47.674;-2.050;2023-10-09T08:41:09;18.90;63.20
81935;DHT22;71405;47.674;-2.050;2023-10-09T08:43:52;18.90;63.60
81935;DHT22;71405;47.674;-2.050;2023-10-09T08:46:25;18.90;63.30
81935;DHT22;71405;47.674;-2.050;2023-10-09T08:48:58;18.90;63.50
81935;DHT22;71405;47.674;-2.050;2023-10-09T08:51:30;18.90;63.20
81935;DHT22;71405;47.674;-2.050;2023-10-09T08:53:58;18.90;63.40
81935;DHT22;71405;47.674;-2.050;2023-10-09T08:56:23;18.90;63.60
81935;DHT22;71405;47.674;-2.050;2023-10-09T08:58:55;18.90;63.40
81935;DHT22;71405;47.674;-2.050;2023-10-09T09:01:21;18.90;63.40
81935;DHT22;71405;47.674;-2.050;2023-10-09T09:03:49;18.90;63.80
81935;DHT22;71405;47.674;-2.050;2023-10-09T09:06:17;18.90;64.00
81935;DHT22;71405;47.674;-2.050;2023-10-09T09:08:45;18.90;63.60
81935;DHT22;71405;47.674;-2.050;2023-10-09T09:11:16;18.90;63.50
81935;DHT22;71405;47.674;-2.050;2023-10-09T09:16:44;18.90;63.80
81935;DHT22;71405;47.674;-2.050;2023-10-09T09:19:13;18.90;63.70
81935;DHT22;71405;47.674;-2.050;2023-10-09T09:21:57;18.90;63.60
81935;DHT22;71405;47.674;-2.050;2023-10-09T09:24:37;18.90;63.60
81935;DHT22;71405;47.674;-2.050;2023-10-09T09:27:04;18.90;63.70
81935;DHT22;71405;47.674;-2.050;2023-10-09T09:32:13;18.90;63.90
81935;DHT22;71405;47.674;-2.050;2023-10-09T09:34:49;19.00;63.70
81935;DHT22;71405;47.674;-2.050;2023-10-09T09:37:22;19.00;64.00
81935;DHT22;71405;47.674;-2.050;2023-10-09T09:40:03;19.00;63.90
81935;DHT22;71405;47.674;-2.050;2023-10-09T09:42:59;19.00;63.80
81935;DHT22;71405;47.674;-2.050;2023-10-09T09:45:37;19.00;64.10
81935;DHT22;71405;47.674;-2.050;2023-10-09T09:48:04;19.00;64.10
81935;DHT22;71405;47.674;-2.050;2023-10-09T09:50:36;19.00;63.90
81935;DHT22;71405;47.674;-2.050;2023-10-09T09:53:10;19.00;64.00
81935;DHT22;71405;47.674;-2.050;2023-10-09T09:55:38;19.00;63.90
81935;DHT22;71405;47.674;-2.050;2023-10-09T09:58:09;19.00;63.90
81935;DHT22;71405;47.674;-2.050;2023-10-09T10:00:44;19.00;64.00
81935;DHT22;71405;47.674;-2.050;2023-10-09T10:03:17;19.00;63.90
81935;DHT22;71405;47.674;-2.050;2023-10-09T10:05:45;19.00;63.80
81935;DHT22;71405;47.674;-2.050;2023-10-09T10:08:20;19.00;64.00
81935;DHT22;71405;47.674;-2.050;2023-10-09T10:10:48;19.00;63.90
81935;DHT22;71405;47.674;-2.050;2023-10-09T10:13:16;19.00;63.90
81935;DHT22;71405;47.674;-2.050;2023-10-09T10:21:18;19.00;63.80
81935;DHT22;71405;47.674;-2.050;2023-10-09T10:24:01;19.00;63.80
81935;DHT22;71405;47.674;-2.050;2023-10-09T10:26:35;19.00;64.00
81935;DHT22;71405;47.674;-2.050;2023-10-09T10:29:21;19.00;65.40
81935;DHT22;71405;47.674;-2.050;2023-10-09T10:32:00;19.00;66.00
81935;DHT22;71405;47.674;-2.050;2023-10-09T10:37:21;19.10;66.20
81935;DHT22;71405;47.674;-2.050;2023-10-09T10:40:06;19.10;66.70
81935;DHT22;71405;47.674;-2.050;2023-10-09T10:42:48;19.20;66.80
81935;DHT22;71405;47.674;-2.050;2023-10-09T10:45:36;19.20;67.00
81935;DHT22;71405;47.674;-2.050;2023-10-09T10:48:05;19.20;67.10
81935;DHT22;71405;47.674;-2.050;2023-10-09T10:50:35;19.20;67.60
81935;DHT22;71405;47.674;-2.050;2023-10-09T10:53:31;19.30;67.60
81935;DHT22;71405;47.674;-2.050;2023-10-09T10:56:15;19.30;68.00
81935;DHT22;71405;47.674;-2.050;2023-10-09T10:58:51;19.30;67.50
81935;DHT22;71405;47.674;-2.050;2023-10-09T11:01:33;19.40;67.30
81935;DHT22;71405;47.674;-2.050;2023-10-09T11:04:17;19.40;67.60
81935;DHT22;71405;47.674;-2.050;2023-10-09T11:06:53;19.40;67.30
81935;DHT22;71405;47.674;-2.050;2023-10-09T11:09:26;19.50;67.20
81935;DHT22;71405;47.674;-2.050;2023-10-09T11:12:05;19.50;67.10
81935;DHT22;71405;47.674;-2.050;2023-10-09T11:14:48;19.60;67.30
81935;DHT22;71405;47.674;-2.050;2023-10-09T11:17:36;19.60;67.30
81935;DHT22;71405;47.674;-2.050;2023-10-09T11:20:05;19.60;67.30
81935;DHT22;71405;47.674;-2.050;2023-10-09T11:22:51;19.70;67.20
81935;DHT22;71405;47.674;-2.050;2023-10-09T11:25:46;19.80;66.80
81935;DHT22;71405;47.674;-2.050;2023-10-09T11:28:22;19.80;66.60
81935;DHT22;71405;47.674;-2.050;2023-10-09T11:33:46;19.90;66.60
81935;DHT22;71405;47.674;-2.050;2023-10-09T11:36:15;19.90;66.00
81935;DHT22;71405;47.674;-2.050;2023-10-09T11:38:41;20.00;65.90
81935;DHT22;71405;47.674;-2.050;2023-10-09T11:41:17;20.00;65.80
81935;DHT22;71405;47.674;-2.050;2023-10-09T11:43:54;20.00;65.70
81935;DHT22;71405;47.674;-2.050;2023-10-09T11:46:23;20.10;65.40
81935;DHT22;71405;47.674;-2.050;2023-10-09T11:49:10;20.10;65.00
81935;DHT22;71405;47.674;-2.050;2023-10-09T11:51:44;20.20;64.60
81935;DHT22;71405;47.674;-2.050;2023-10-09T11:54:32;20.20;64.00
81935;DHT22;71405;47.674;-2.050;2023-10-09T11:56:59;20.20;64.30
81935;DHT22;71405;47.674;-2.050;2023-10-09T11:59:28;20.10;64.30
81935;DHT22;71405;47.674;-2.050;2023-10-09T12:02:00;20.10;63.90
81935;DHT22;71405;47.674;-2.050;2023-10-09T12:04:26;20.10;63.30
81935;DHT22;71405;47.674;-2.050;2023-10-09T12:06:58;20.10;63.70
81935;DHT22;71405;47.674;-2.050;2023-10-09T12:09:34;20.10;63.70
81935;DHT22;71405;47.674;-2.050;2023-10-09T12:12:02;20.00;63.50
81935;DHT22;71405;47.674;-2.050;2023-10-09T12:14:28;20.10;63.60
81935;DHT22;71405;47.674;-2.050;2023-10-09T12:16:59;20.00;63.50
81935;DHT22;71405;47.674;-2.050;2023-10-09T12:19:33;20.00;63.40
81935;DHT22;71405;47.674;-2.050;2023-10-09T12:22:00;20.00;63.30
81935;DHT22;71405;47.674;-2.050;2023-10-09T12:24:33;20.00;63.30
81935;DHT22;71405;47.674;-2.050;2023-10-09T12:26:59;20.00;63.20
81935;DHT22;71405;47.674;-2.050;2023-10-09T12:29:26;20.00;63.10
81935;DHT22;71405;47.674;-2.050;2023-10-09T12:31:58;19.90;62.50
81935;DHT22;71405;47.674;-2.050;2023-10-09T12:34:25;19.90;62.40
81935;DHT22;71405;47.674;-2.050;2023-10-09T12:36:55;19.90;62.20
81935;DHT22;71405;47.674;-2.050;2023-10-09T12:39:21;19.90;62.20
81935;DHT22;71405;47.674;-2.050;2023-10-09T12:41:48;19.90;61.90
81935;DHT22;71405;47.674;-2.050;2023-10-09T12:44:14;19.90;62.50
81935;DHT22;71405;47.674;-2.050;2023-10-09T12:46:43;19.90;62.50
81935;DHT22;71405;47.674;-2.050;2023-10-09T12:49:22;19.90;62.10
81935;DHT22;71405;47.674;-2.050;2023-10-09T12:51:52;19.90;61.50
81935;DHT22;71405;47.674;-2.050;2023-10-09T12:54:18;19.90;61.50
81935;DHT22;71405;47.674;-2.050;2023-10-09T12:56:45;19.90;61.50
81935;DHT22;71405;47.674;-2.050;2023-10-09T12:59:14;19.90;61.60
81935;DHT22;71405;47.674;-2.050;2023-10-09T13:01:43;19.90;60.70
81935;DHT22;71405;47.674;-2.050;2023-10-09T13:04:13;19.80;60.20
81935;DHT22;71405;47.674;-2.050;2023-10-09T13:06:43;19.80;60.40
81935;DHT22;71405;47.674;-2.050;2023-10-09T13:09:18;19.90;60.40
81935;DHT22;71405;47.674;-2.050;2023-10-09T13:12:02;19.80;60.10
81935;DHT22;71405;47.674;-2.050;2023-10-09T13:14:29;19.80;60.70
81935;DHT22;71405;47.674;-2.050;2023-10-09T13:16:59;19.80;60.20
81935;DHT22;71405;47.674;-2.050;2023-10-09T13:19:25;19.80;60.10
81935;DHT22;71405;47.674;-2.050;2023-10-09T13:21:51;19.90;60.30
81935;DHT22;71405;47.674;-2.050;2023-10-09T13:24:16;19.80;60.70
81935;DHT22;71405;47.674;-2.050;2023-10-09T13:26:43;19.80;61.10
81935;DHT22;71405;47.674;-2.050;2023-10-09T13:29:12;19.80;61.00
81935;DHT22;71405;47.674;-2.050;2023-10-09T13:31:39;19.80;61.50
81935;DHT22;71405;47.674;-2.050;2023-10-09T13:34:05;19.80;61.30
81935;DHT22;71405;47.674;-2.050;2023-10-09T13:36:32;19.80;61.30
81935;DHT22;71405;47.674;-2.050;2023-10-09T13:39:04;19.80;61.30
81935;DHT22;71405;47.674;-2.050;2023-10-09T13:41:58;19.80;61.30
81935;DHT22;71405;47.674;-2.050;2023-10-09T13:44:31;19.80;61.30
81935;DHT22;71405;47.674;-2.050;2023-10-09T13:46:58;19.80;61.40
81935;DHT22;71405;47.674;-2.050;2023-10-09T13:49:25;19.80;61.40
81935;DHT22;71405;47.674;-2.050;2023-10-09T13:51:57;19.80;61.50
81935;DHT22;71405;47.674;-2.050;2023-10-09T13:54:24;19.80;61.30
81935;DHT22;71405;47.674;-2.050;2023-10-09T13:57:09;19.80;61.30
81935;DHT22;71405;47.674;-2.050;2023-10-09T13:59:36;19.80;61.30
81935;DHT22;71405;47.674;-2.050;2023-10-09T14:02:07;19.80;61.50
81935;DHT22;71405;47.674;-2.050;2023-10-09T14:04:42;19.90;61.50
81935;DHT22;71405;47.674;-2.050;2023-10-09T14:07:09;19.90;61.80
81935;DHT22;71405;47.674;-2.050;2023-10-09T14:09:35;19.90;61.80
81935;DHT22;71405;47.674;-2.050;2023-10-09T14:12:06;19.90;61.80
81935;DHT22;71405;47.674;-2.050;2023-10-09T14:14:40;19.90;61.90
81935;DHT22;71405;47.674;-2.050;2023-10-09T14:17:16;19.90;62.10
81935;DHT22;71405;47.674;-2.050;2023-10-09T14:19:49;19.90;62.00
81935;DHT22;71405;47.674;-2.050;2023-10-09T14:22:17;19.90;61.90
81935;DHT22;71405;47.674;-2.050;2023-10-09T14:24:48;19.90;62.00
81935;DHT22;71405;47.674;-2.050;2023-10-09T14:27:21;19.90;61.90
81935;DHT22;71405;47.674;-2.050;2023-10-09T14:29:50;19.90;61.90
81935;DHT22;71405;47.674;-2.050;2023-10-09T14:32:16;19.90;62.00
81935;DHT22;71405;47.674;-2.050;2023-10-09T14:34:43;19.90;62.00
81935;DHT22;71405;47.674;-2.050;2023-10-09T14:37:18;19.90;62.10
81935;DHT22;71405;47.674;-2.050;2023-10-09T14:39:45;19.90;62.20
81935;DHT22;71405;47.674;-2.050;2023-10-09T14:42:17;19.90;61.90
81935;DHT22;71405;47.674;-2.050;2023-10-09T14:44:43;19.90;62.40
81935;DHT22;71405;47.674;-2.050;2023-10-09T14:47:11;20.00;62.50
81935;DHT22;71405;47.674;-2.050;2023-10-09T14:49:37;19.90;62.40
81935;DHT22;71405;47.674;-2.050;2023-10-09T14:52:09;19.90;62.60
81935;DHT22;71405;47.674;-2.050;2023-10-09T14:54:36;20.00;62.20
81935;DHT22;71405;47.674;-2.050;2023-10-09T14:57:02;20.00;62.10
81935;DHT22;71405;47.674;-2.050;2023-10-09T14:59:32;20.00;62.50
81935;DHT22;71405;47.674;-2.050;2023-10-09T15:01:58;20.00;62.70
81935;DHT22;71405;47.674;-2.050;2023-10-09T15:04:25;20.00;62.50
81935;DHT22;71405;47.674;-2.050;2023-10-09T15:06:53;20.00;62.60
81935;DHT22;71405;47.674;-2.050;2023-10-09T15:09:19;20.00;62.40
81935;DHT22;71405;47.674;-2.050;2023-10-09T15:11:49;20.00;62.00
81935;DHT22;71405;47.674;-2.050;2023-10-09T15:14:16;20.00;61.90
81935;DHT22;71405;47.674;-2.050;2023-10-09T15:16:44;20.00;61.60
81935;DHT22;71405;47.674;-2.050;2023-10-09T15:19:10;20.00;62.20
81935;DHT22;71405;47.674;-2.050;2023-10-09T15:21:37;20.00;61.90
81935;DHT22;71405;47.674;-2.050;2023-10-09T15:24:10;20.00;61.80
81935;DHT22;71405;47.674;-2.050;2023-10-09T15:26:38;20.00;62.00
81935;DHT22;71405;47.674;-2.050;2023-10-09T15:29:05;20.00;62.00
81935;DHT22;71405;47.674;-2.050;2023-10-09T15:31:33;20.00;61.90
81935;DHT22;71405;47.674;-2.050;2023-10-09T15:34:00;20.00;61.80
81935;DHT22;71405;47.674;-2.050;2023-10-09T15:36:26;20.00;61.60
81935;DHT22;71405;47.674;-2.050;2023-10-09T15:38:55;20.00;61.50
81935;DHT22;71405;47.674;-2.050;2023-10-09T15:41:28;20.00;61.80
81935;DHT22;71405;47.674;-2.050;2023-10-09T15:43:57;19.90;61.50
81935;DHT22;71405;47.674;-2.050;2023-10-09T15:46:24;20.00;61.40
81935;DHT22;71405;47.674;-2.050;2023-10-09T15:48:51;20.00;61.40
81935;DHT22;71405;47.674;-2.050;2023-10-09T15:51:19;20.00;61.60
81935;DHT22;71405;47.674;-2.050;2023-10-09T15:53:45;20.00;61.50
81935;DHT22;71405;47.674;-2.050;2023-10-09T15:56:12;20.00;61.70
81935;DHT22;71405;47.674;-2.050;2023-10-09T15:58:41;20.00;61.50
81935;DHT22;71405;47.674;-2.050;2023-10-09T16:01:14;20.00;61.90
81935;DHT22;71405;47.674;-2.050;2023-10-09T16:03:41;20.00;61.60
81935;DHT22;71405;47.674;-2.050;2023-10-09T16:06:07;20.00;61.80
81935;DHT22;71405;47.674;-2.050;2023-10-09T16:08:40;20.00;61.90
81935;DHT22;71405;47.674;-2.050;2023-10-09T16:11:07;20.00;61.70
81935;DHT22;71405;47.674;-2.050;2023-10-09T16:13:34;20.00;62.00
81935;DHT22;71405;47.674;-2.050;2023-10-09T16:16:00;19.90;62.20
81935;DHT22;71405;47.674;-2.050;2023-10-09T16:18:27;20.00;62.30
81935;DHT22;71405;47.674;-2.050;2023-10-09T16:20:56;20.00;62.50
81935;DHT22;71405;47.674;-2.050;2023-10-09T16:23:22;19.90;62.20
81935;DHT22;71405;47.674;-2.050;2023-10-09T16:25:48;20.00;62.40
81935;DHT22;71405;47.674;-2.050;2023-10-09T16:28:14;20.00;62.20
81935;DHT22;71405;47.674;-2.050;2023-10-09T16:30:43;20.00;62.10